sensor_id;sensor_type;location;lat;lon;timestamp;P1;durP1;ratioP1;P2;durP2;ratioP2
11604;SDS011;5858;43.076;25.626;2023-03-23T00:02:19;14.83;;;12.67;;
11604;SDS011;5858;43.076;25.626;2023-03-23T00:04:50;16.27;;;12.73;;
11604;SDS011;5858;43.076;25.626;2023-03-23T00:07:18;15.73;;;13.33;;
11604;SDS011;5858;43.076;25.626;2023-03-23T00:09:46;16.60;;;14.17;;
11604;SDS011;5858;43.076;25.626;2023-03-23T00:12:19;17.10;;;13.23;;
11604;SDS011;5858;43.076;25.626;2023-03-23T00:14:54;16.83;;;12.27;;
11604;SDS011;5858;43.076;25.626;2023-03-23T00:17:21;18.27;;;14.33;;
11604;SDS011;5858;43.076;25.626;2023-03-23T00:19:48;18.20;;;14.23;;
11604;SDS011;5858;43.076;25.626;2023-03-23T00:22:16;17.67;;;14.07;;
11604;SDS011;5858;43.076;25.626;2023-03-23T00:24:46;18.70;;;14.07;;
11604;SDS011;5858;43.076;25.626;2023-03-23T00:27:15;19.33;;;14.43;;
11604;SDS011;5858;43.076;25.626;2023-03-23T00:29:48;19.97;;;14.63;;
11604;SDS011;5858;43.076;25.626;2023-03-23T00:32:18;19.37;;;14.13;;
11604;SDS011;5858;43.076;25.626;2023-03-23T00:34:46;18.50;;;12.00;;
11604;SDS011;5858;43.076;25.626;2023-03-23T00:37:14;18.60;;;14.03;;
11604;SDS011;5858;43.076;25.626;2023-03-23T00:39:42;18.90;;;14.13;;
11604;SDS011;5858;43.076;25.626;2023-03-23T00:42:12;19.10;;;13.93;;
11604;SDS011;5858;43.076;25.626;2023-03-23T00:44:40;16.77;;;14.23;;
11604;SDS011;5858;43.076;25.626;2023-03-23T00:47:10;18.73;;;13.83;;
11604;SDS011;5858;43.076;25.626;2023-03-23T00:49:38;15.70;;;13.07;;
11604;SDS011;5858;43.076;25.626;2023-03-23T00:52:06;16.13;;;12.63;;
11604;SDS011;5858;43.076;25.626;2023-03-23T00:54:33;14.33;;;12.17;;
11604;SDS011;5858;43.076;25.626;2023-03-23T00:57:02;17.17;;;13.17;;
11604;SDS011;5858;43.076;25.626;2023-03-23T00:59:30;17.83;;;13.40;;
11604;SDS011;5858;43.076;25.626;2023-03-23T01:01:57;16.33;;;13.23;;
11604;SDS011;5858;43.076;25.626;2023-03-23T01:04:25;18.63;;;13.73;;
11604;SDS011;5858;43.076;25.626;2023-03-23T01:06:53;20.37;;;13.63;;
11604;SDS011;5858;43.076;25.626;2023-03-23T01:09:21;17.63;;;12.47;;
11604;SDS011;5858;43.076;25.626;2023-03-23T01:11:49;17.40;;;13.80;;
11604;SDS011;5858;43.076;25.626;2023-03-23T01:14:18;19.90;;;14.13;;
11604;SDS011;5858;43.076;25.626;2023-03-23T01:16:45;17.03;;;12.80;;
11604;SDS011;5858;43.076;25.626;2023-03-23T01:19:13;18.13;;;13.17;;
11604;SDS011;5858;43.076;25.626;2023-03-23T01:21:42;17.23;;;12.63;;
11604;SDS011;5858;43.076;25.626;2023-03-23T01:24:09;16.60;;;12.87;;
11604;SDS011;5858;43.076;25.626;2023-03-23T01:26:36;21.03;;;12.77;;
11604;SDS011;5858;43.076;25.626;2023-03-23T01:29:03;19.97;;;13.23;;
11604;SDS011;5858;43.076;25.626;2023-03-23T01:31:31;18.70;;;13.03;;
11604;SDS011;5858;43.076;25.626;2023-03-23T01:33:58;19.73;;;14.23;;
11604;SDS011;5858;43.076;25.626;2023-03-23T01:36:25;19.57;;;14.30;;
11604;SDS011;5858;43.076;25.626;2023-03-23T01:38:59;23.07;;;14.10;;
11604;SDS011;5858;43.076;25.626;2023-03-23T01:41:29;20.10;;;14.17;;
11604;SDS011;5858;43.076;25.626;2023-03-23T01:43:57;21.63;;;14.03;;
11604;SDS011;5858;43.076;25.626;2023-03-23T01:46:28;19.67;;;13.53;;
11604;SDS011;5858;43.076;25.626;2023-03-23T01:48:56;19.53;;;12.57;;
11604;SDS011;5858;43.076;25.626;2023-03-23T01:51:26;18.20;;;13.07;;
11604;SDS011;5858;43.076;25.626;2023-03-23T01:53:54;20.03;;;13.03;;
11604;SDS011;5858;43.076;25.626;2023-03-23T01:56:25;18.97;;;14.00;;
11604;SDS011;5858;43.076;25.626;2023-03-23T01:58:55;16.40;;;12.03;;
11604;SDS011;5858;43.076;25.626;2023-03-23T02:01:23;17.53;;;12.80;;
11604;SDS011;5858;43.076;25.626;2023-03-23T02:03:51;17.43;;;12.90;;
11604;SDS011;5858;43.076;25.626;2023-03-23T02:06:20;17.77;;;12.97;;
11604;SDS011;5858;43.076;25.626;2023-03-23T02:08:48;18.70;;;13.07;;
11604;SDS011;5858;43.076;25.626;2023-03-23T02:11:18;17.97;;;12.67;;
11604;SDS011;5858;43.076;25.626;2023-03-23T02:13:51;19.93;;;14.07;;
11604;SDS011;5858;43.076;25.626;2023-03-23T02:16:21;17.47;;;12.57;;
11604;SDS011;5858;43.076;25.626;2023-03-23T02:19:00;17.80;;;12.00;;
11604;SDS011;5858;43.076;25.626;2023-03-23T02:21:48;15.90;;;11.33;;
11604;SDS011;5858;43.076;25.626;2023-03-23T02:24:38;13.83;;;10.47;;
11604;SDS011;5858;43.076;25.626;2023-03-23T02:27:20;12.87;;;9.67;;
11604;SDS011;5858;43.076;25.626;2023-03-23T02:30:12;12.73;;;9.33;;
11604;SDS011;5858;43.076;25.626;2023-03-23T02:35:47;14.60;;;10.67;;
11604;SDS011;5858;43.076;25.626;2023-03-23T02:38:20;15.07;;;10.50;;
11604;SDS011;5858;43.076;25.626;2023-03-23T02:40:54;12.80;;;9.30;;
11604;SDS011;5858;43.076;25.626;2023-03-23T02:43:27;15.60;;;10.07;;
11604;SDS011;5858;43.076;25.626;2023-03-23T02:45:56;13.37;;;8.57;;
11604;SDS011;5858;43.076;25.626;2023-03-23T02:48:27;12.70;;;10.10;;
11604;SDS011;5858;43.076;25.626;2023-03-23T02:50:56;11.53;;;8.73;;
11604;SDS011;5858;43.076;25.626;2023-03-23T02:53:26;12.87;;;9.20;;
11604;SDS011;5858;43.076;25.626;2023-03-23T02:55:55;11.23;;;8.77;;
11604;SDS011;5858;43.076;25.626;2023-03-23T02:58:24;11.47;;;9.13;;
11604;SDS011;5858;43.076;25.626;2023-03-23T03:00:53;13.77;;;8.77;;
11604;SDS011;5858;43.076;25.626;2023-03-23T03:03:22;10.60;;;8.03;;
11604;SDS011;5858;43.076;25.626;2023-03-23T03:05:55;11.90;;;9.17;;
11604;SDS011;5858;43.076;25.626;2023-03-23T03:08:32;11.30;;;8.97;;
11604;SDS011;5858;43.076;25.626;2023-03-23T03:11:10;11.77;;;8.87;;
11604;SDS011;5858;43.076;25.626;2023-03-23T03:13:42;14.20;;;10.10;;
11604;SDS011;5858;43.076;25.626;2023-03-23T03:16:16;11.80;;;9.30;;
11604;SDS011;5858;43.076;25.626;2023-03-23T03:18:51;12.40;;;9.57;;
11604;SDS011;5858;43.076;25.626;2023-03-23T03:21:25;14.07;;;9.80;;
11604;SDS011;5858;43.076;25.626;2023-03-23T03:23:55;13.23;;;9.53;;
11604;SDS011;5858;43.076;25.626;2023-03-23T03:26:26;14.43;;;9.57;;
11604;SDS011;5858;43.076;25.626;2023-03-23T03:28:54;13.07;;;9.77;;
11604;SDS011;5858;43.076;25.626;2023-03-23T03:31:23;12.13;;;9.23;;
11604;SDS011;5858;43.076;25.626;2023-03-23T03:33:54;12.30;;;8.77;;
11604;SDS011;5858;43.076;25.626;2023-03-23T03:36:23;11.90;;;9.83;;
11604;SDS011;5858;43.076;25.626;2023-03-23T03:39:00;12.23;;;9.63;;
11604;SDS011;5858;43.076;25.626;2023-03-23T03:41:32;12.30;;;9.93;;
11604;SDS011;5858;43.076;25.626;2023-03-23T03:44:00;13.10;;;9.70;;
11604;SDS011;5858;43.076;25.626;2023-03-23T03:46:27;13.13;;;10.37;;
11604;SDS011;5858;43.076;25.626;2023-03-23T03:48:56;13.60;;;10.20;;
11604;SDS011;5858;43.076;25.626;2023-03-23T03:51:23;12.80;;;8.93;;
11604;SDS011;5858;43.076;25.626;2023-03-23T03:53:52;11.80;;;9.37;;
11604;SDS011;5858;43.076;25.626;2023-03-23T03:56:19;12.83;;;9.73;;
11604;SDS011;5858;43.076;25.626;2023-03-23T03:58:47;12.10;;;9.67;;
11604;SDS011;5858;43.076;25.626;2023-03-23T04:01:15;12.73;;;9.63;;
11604;SDS011;5858;43.076;25.626;2023-03-23T04:03:43;13.07;;;9.43;;
11604;SDS011;5858;43.076;25.626;2023-03-23T04:06:10;13.27;;;10.10;;
11604;SDS011;5858;43.076;25.626;2023-03-23T04:08:38;11.83;;;9.83;;
11604;SDS011;5858;43.076;25.626;2023-03-23T04:11:08;13.00;;;10.27;;
11604;SDS011;5858;43.076;25.626;2023-03-23T04:13:37;13.70;;;10.73;;
11604;SDS011;5858;43.076;25.626;2023-03-23T04:16:05;14.47;;;10.50;;
11604;SDS011;5858;43.076;25.626;2023-03-23T04:18:33;14.33;;;11.27;;
11604;SDS011;5858;43.076;25.626;2023-03-23T04:21:00;13.93;;;10.53;;
11604;SDS011;5858;43.076;25.626;2023-03-23T04:23:30;14.73;;;11.30;;
11604;SDS011;5858;43.076;25.626;2023-03-23T04:25:59;13.67;;;11.40;;
11604;SDS011;5858;43.076;25.626;2023-03-23T04:28:27;13.57;;;10.70;;
11604;SDS011;5858;43.076;25.626;2023-03-23T04:30:54;16.30;;;11.13;;
11604;SDS011;5858;43.076;25.626;2023-03-23T04:33:27;15.33;;;11.67;;
11604;SDS011;5858;43.076;25.626;2023-03-23T04:35:55;14.77;;;11.30;;
11604;SDS011;5858;43.076;25.626;2023-03-23T04:38:26;16.07;;;11.53;;
11604;SDS011;5858;43.076;25.626;2023-03-23T04:40:54;14.90;;;11.93;;
11604;SDS011;5858;43.076;25.626;2023-03-23T04:43:22;14.97;;;12.27;;
11604;SDS011;5858;43.076;25.626;2023-03-23T04:45:53;15.53;;;12.17;;
11604;SDS011;5858;43.076;25.626;2023-03-23T04:48:22;16.73;;;11.87;;
11604;SDS011;5858;43.076;25.626;2023-03-23T04:50:49;15.13;;;11.83;;
11604;SDS011;5858;43.076;25.626;2023-03-23T04:53:17;15.73;;;12.87;;
11604;SDS011;5858;43.076;25.626;2023-03-23T04:55:46;16.47;;;12.60;;
11604;SDS011;5858;43.076;25.626;2023-03-23T04:58:14;17.07;;;12.70;;
11604;SDS011;5858;43.076;25.626;2023-03-23T05:00:42;16.83;;;13.77;;
11604;SDS011;5858;43.076;25.626;2023-03-23T05:03:16;15.37;;;12.83;;
11604;SDS011;5858;43.076;25.626;2023-03-23T05:05:43;18.73;;;13.80;;
11604;SDS011;5858;43.076;25.626;2023-03-23T05:08:12;18.50;;;14.07;;
11604;SDS011;5858;43.076;25.626;2023-03-23T05:10:39;17.83;;;13.90;;
11604;SDS011;5858;43.076;25.626;2023-03-23T05:13:06;20.73;;;13.93;;
11604;SDS011;5858;43.076;25.626;2023-03-23T05:15:33;18.37;;;14.93;;
11604;SDS011;5858;43.076;25.626;2023-03-23T05:18:00;19.03;;;15.23;;
11604;SDS011;5858;43.076;25.626;2023-03-23T05:20:29;18.80;;;14.17;;
11604;SDS011;5858;43.076;25.626;2023-03-23T05:22:56;19.57;;;13.40;;
11604;SDS011;5858;43.076;25.626;2023-03-23T05:25:24;16.87;;;12.90;;
11604;SDS011;5858;43.076;25.626;2023-03-23T05:27:51;20.07;;;14.20;;
11604;SDS011;5858;43.076;25.626;2023-03-23T05:30:19;22.97;;;15.50;;
11604;SDS011;5858;43.076;25.626;2023-03-23T05:32:47;20.07;;;14.47;;
11604;SDS011;5858;43.076;25.626;2023-03-23T05:35:15;17.90;;;13.77;;
11604;SDS011;5858;43.076;25.626;2023-03-23T05:37:44;17.13;;;13.23;;
11604;SDS011;5858;43.076;25.626;2023-03-23T05:40:12;18.30;;;13.70;;
11604;SDS011;5858;43.076;25.626;2023-03-23T05:42:45;16.20;;;12.67;;
11604;SDS011;5858;43.076;25.626;2023-03-23T05:45:14;19.70;;;13.53;;
11604;SDS011;5858;43.076;25.626;2023-03-23T05:47:41;18.13;;;14.57;;
11604;SDS011;5858;43.076;25.626;2023-03-23T05:50:08;21.60;;;14.30;;
11604;SDS011;5858;43.076;25.626;2023-03-23T05:52:36;20.63;;;14.47;;
11604;SDS011;5858;43.076;25.626;2023-03-23T05:55:06;17.37;;;13.90;;
11604;SDS011;5858;43.076;25.626;2023-03-23T05:57:34;20.73;;;14.70;;
11604;SDS011;5858;43.076;25.626;2023-03-23T06:00:05;19.10;;;13.87;;
11604;SDS011;5858;43.076;25.626;2023-03-23T06:02:44;17.70;;;13.80;;
11604;SDS011;5858;43.076;25.626;2023-03-23T06:05:14;20.07;;;14.37;;
11604;SDS011;5858;43.076;25.626;2023-03-23T06:07:41;20.93;;;15.00;;
11604;SDS011;5858;43.076;25.626;2023-03-23T06:10:10;18.27;;;13.03;;
11604;SDS011;5858;43.076;25.626;2023-03-23T06:12:37;18.03;;;13.57;;
11604;SDS011;5858;43.076;25.626;2023-03-23T06:15:06;17.10;;;12.93;;
11604;SDS011;5858;43.076;25.626;2023-03-23T06:17:34;17.73;;;13.33;;
11604;SDS011;5858;43.076;25.626;2023-03-23T06:20:02;17.33;;;14.10;;
11604;SDS011;5858;43.076;25.626;2023-03-23T06:22:35;15.23;;;12.93;;
11604;SDS011;5858;43.076;25.626;2023-03-23T06:25:03;16.97;;;13.07;;
11604;SDS011;5858;43.076;25.626;2023-03-23T06:27:32;16.37;;;12.70;;
11604;SDS011;5858;43.076;25.626;2023-03-23T06:30:00;20.80;;;13.87;;
11604;SDS011;5858;43.076;25.626;2023-03-23T06:32:28;15.87;;;12.17;;
11604;SDS011;5858;43.076;25.626;2023-03-23T06:34:57;14.87;;;11.60;;
11604;SDS011;5858;43.076;25.626;2023-03-23T06:37:25;16.87;;;12.33;;
11604;SDS011;5858;43.076;25.626;2023-03-23T06:39:52;15.53;;;12.10;;
11604;SDS011;5858;43.076;25.626;2023-03-23T06:42:21;15.90;;;12.33;;
11604;SDS011;5858;43.076;25.626;2023-03-23T06:44:50;15.57;;;11.90;;
11604;SDS011;5858;43.076;25.626;2023-03-23T06:47:18;16.17;;;11.33;;
11604;SDS011;5858;43.076;25.626;2023-03-23T06:49:48;16.20;;;12.37;;
11604;SDS011;5858;43.076;25.626;2023-03-23T06:52:17;15.63;;;13.13;;
11604;SDS011;5858;43.076;25.626;2023-03-23T06:54:44;15.00;;;11.50;;
11604;SDS011;5858;43.076;25.626;2023-03-23T06:57:12;13.73;;;10.37;;
11604;SDS011;5858;43.076;25.626;2023-03-23T06:59:39;15.40;;;9.93;;
11604;SDS011;5858;43.076;25.626;2023-03-23T07:02:09;11.10;;;9.77;;
11604;SDS011;5858;43.076;25.626;2023-03-23T07:04:37;10.77;;;9.10;;
11604;SDS011;5858;43.076;25.626;2023-03-23T07:07:05;10.40;;;8.37;;
11604;SDS011;5858;43.076;25.626;2023-03-23T07:09:35;14.13;;;9.83;;
11604;SDS011;5858;43.076;25.626;2023-03-23T07:12:03;14.17;;;8.67;;
11604;SDS011;5858;43.076;25.626;2023-03-23T07:14:30;12.10;;;9.33;;
11604;SDS011;5858;43.076;25.626;2023-03-23T07:16:57;13.13;;;9.50;;
11604;SDS011;5858;43.076;25.626;2023-03-23T07:19:27;10.83;;;8.60;;
11604;SDS011;5858;43.076;25.626;2023-03-23T07:21:56;11.73;;;9.03;;
11604;SDS011;5858;43.076;25.626;2023-03-23T07:24:23;13.70;;;9.37;;
11604;SDS011;5858;43.076;25.626;2023-03-23T07:26:51;12.43;;;8.73;;
11604;SDS011;5858;43.076;25.626;2023-03-23T07:29:18;15.63;;;11.03;;
11604;SDS011;5858;43.076;25.626;2023-03-23T07:31:45;12.43;;;9.57;;
11604;SDS011;5858;43.076;25.626;2023-03-23T07:34:12;12.20;;;9.33;;
11604;SDS011;5858;43.076;25.626;2023-03-23T07:36:41;13.83;;;9.53;;
11604;SDS011;5858;43.076;25.626;2023-03-23T07:39:09;11.53;;;10.20;;
11604;SDS011;5858;43.076;25.626;2023-03-23T07:41:37;11.23;;;9.03;;
11604;SDS011;5858;43.076;25.626;2023-03-23T07:44:05;11.90;;;9.07;;
11604;SDS011;5858;43.076;25.626;2023-03-23T07:46:32;10.50;;;8.43;;
11604;SDS011;5858;43.076;25.626;2023-03-23T07:48:59;10.43;;;8.27;;
11604;SDS011;5858;43.076;25.626;2023-03-23T07:51:30;12.03;;;8.33;;
11604;SDS011;5858;43.076;25.626;2023-03-23T07:53:59;12.03;;;7.73;;
11604;SDS011;5858;43.076;25.626;2023-03-23T07:56:27;12.13;;;9.33;;
11604;SDS011;5858;43.076;25.626;2023-03-23T07:58:55;9.50;;;7.83;;
11604;SDS011;5858;43.076;25.626;2023-03-23T08:01:22;9.97;;;8.33;;
11604;SDS011;5858;43.076;25.626;2023-03-23T08:03:49;11.67;;;9.53;;
11604;SDS011;5858;43.076;25.626;2023-03-23T08:06:19;12.53;;;9.13;;
11604;SDS011;5858;43.076;25.626;2023-03-23T08:08:48;10.63;;;8.57;;
11604;SDS011;5858;43.076;25.626;2023-03-23T08:11:18;10.33;;;8.60;;
11604;SDS011;5858;43.076;25.626;2023-03-23T08:13:49;13.10;;;9.17;;
11604;SDS011;5858;43.076;25.626;2023-03-23T08:16:17;13.33;;;9.87;;
11604;SDS011;5858;43.076;25.626;2023-03-23T08:18:45;13.77;;;9.63;;
11604;SDS011;5858;43.076;25.626;2023-03-23T08:21:12;11.40;;;8.67;;
11604;SDS011;5858;43.076;25.626;2023-03-23T08:23:39;9.63;;;7.90;;
11604;SDS011;5858;43.076;25.626;2023-03-23T08:26:07;14.30;;;9.53;;
11604;SDS011;5858;43.076;25.626;2023-03-23T08:28:36;12.30;;;9.43;;
11604;SDS011;5858;43.076;25.626;2023-03-23T08:31:06;14.77;;;9.87;;
11604;SDS011;5858;43.076;25.626;2023-03-23T08:33:35;10.87;;;8.53;;
11604;SDS011;5858;43.076;25.626;2023-03-23T08:36:06;11.93;;;8.30;;
11604;SDS011;5858;43.076;25.626;2023-03-23T08:38:34;11.57;;;8.37;;
11604;SDS011;5858;43.076;25.626;2023-03-23T08:41:02;10.50;;;8.17;;
11604;SDS011;5858;43.076;25.626;2023-03-23T08:43:31;15.03;;;10.33;;
11604;SDS011;5858;43.076;25.626;2023-03-23T08:45:59;11.30;;;8.17;;
11604;SDS011;5858;43.076;25.626;2023-03-23T08:48:32;9.83;;;7.83;;
11604;SDS011;5858;43.076;25.626;2023-03-23T08:51:02;10.33;;;7.53;;
11604;SDS011;5858;43.076;25.626;2023-03-23T08:53:29;12.40;;;9.63;;
11604;SDS011;5858;43.076;25.626;2023-03-23T08:55:56;11.23;;;8.67;;
11604;SDS011;5858;43.076;25.626;2023-03-23T08:58:30;9.63;;;7.50;;
11604;SDS011;5858;43.076;25.626;2023-03-23T09:00:57;12.17;;;7.47;;
11604;SDS011;5858;43.076;25.626;2023-03-23T09:03:26;10.60;;;7.40;;
11604;SDS011;5858;43.076;25.626;2023-03-23T09:05:57;9.07;;;7.50;;
11604;SDS011;5858;43.076;25.626;2023-03-23T09:08:28;9.20;;;7.70;;
11604;SDS011;5858;43.076;25.626;2023-03-23T09:10:58;8.17;;;7.33;;
11604;SDS011;5858;43.076;25.626;2023-03-23T09:13:27;10.77;;;8.07;;
11604;SDS011;5858;43.076;25.626;2023-03-23T09:15:55;9.60;;;7.53;;
11604;SDS011;5858;43.076;25.626;2023-03-23T09:18:22;10.53;;;8.73;;
11604;SDS011;5858;43.076;25.626;2023-03-23T09:20:52;8.60;;;7.77;;
11604;SDS011;5858;43.076;25.626;2023-03-23T09:23:20;10.27;;;7.57;;
11604;SDS011;5858;43.076;25.626;2023-03-23T09:26:01;9.20;;;8.10;;
11604;SDS011;5858;43.076;25.626;2023-03-23T09:28:39;8.77;;;7.13;;
11604;SDS011;5858;43.076;25.626;2023-03-23T09:31:06;8.60;;;6.83;;
11604;SDS011;5858;43.076;25.626;2023-03-23T09:33:33;7.50;;;6.20;;
11604;SDS011;5858;43.076;25.626;2023-03-23T09:36:02;8.67;;;6.83;;
11604;SDS011;5858;43.076;25.626;2023-03-23T09:38:30;16.20;;;8.13;;
11604;SDS011;5858;43.076;25.626;2023-03-23T09:41:03;14.53;;;8.07;;
11604;SDS011;5858;43.076;25.626;2023-03-23T09:43:47;12.03;;;7.67;;
11604;SDS011;5858;43.076;25.626;2023-03-23T09:46:31;10.77;;;6.47;;
11604;SDS011;5858;43.076;25.626;2023-03-23T09:49:08;8.37;;;6.67;;
11604;SDS011;5858;43.076;25.626;2023-03-23T09:51:44;7.70;;;6.80;;
11604;SDS011;5858;43.076;25.626;2023-03-23T09:54:16;10.00;;;7.30;;
11604;SDS011;5858;43.076;25.626;2023-03-23T09:56:47;10.88;;;7.55;;
11604;SDS011;5858;43.076;25.626;2023-03-23T09:59:17;7.43;;;6.17;;
11604;SDS011;5858;43.076;25.626;2023-03-23T10:01:50;7.37;;;5.60;;
11604;SDS011;5858;43.076;25.626;2023-03-23T10:04:24;8.13;;;5.83;;
11604;SDS011;5858;43.076;25.626;2023-03-23T10:07:00;10.63;;;6.70;;
11604;SDS011;5858;43.076;25.626;2023-03-23T10:09:36;7.73;;;5.73;;
11604;SDS011;5858;43.076;25.626;2023-03-23T10:12:06;8.63;;;6.47;;
11604;SDS011;5858;43.076;25.626;2023-03-23T10:14:48;9.90;;;6.80;;
11604;SDS011;5858;43.076;25.626;2023-03-23T10:17:26;9.43;;;6.30;;
11604;SDS011;5858;43.076;25.626;2023-03-23T10:20:04;7.37;;;6.07;;
11604;SDS011;5858;43.076;25.626;2023-03-23T10:22:47;8.25;;;6.38;;
11604;SDS011;5858;43.076;25.626;2023-03-23T10:25:19;6.35;;;5.70;;
11604;SDS011;5858;43.076;25.626;2023-03-23T10:27:52;8.02;;;5.90;;
11604;SDS011;5858;43.076;25.626;2023-03-23T10:30:27;8.07;;;6.85;;
11604;SDS011;5858;43.076;25.626;2023-03-23T10:32:58;7.22;;;5.60;;
11604;SDS011;5858;43.076;25.626;2023-03-23T10:35:31;8.60;;;5.78;;
11604;SDS011;5858;43.076;25.626;2023-03-23T10:38:05;10.30;;;7.10;;
11604;SDS011;5858;43.076;25.626;2023-03-23T10:40:43;8.43;;;6.63;;
11604;SDS011;5858;43.076;25.626;2023-03-23T10:43:16;7.75;;;6.53;;
11604;SDS011;5858;43.076;25.626;2023-03-23T10:45:52;8.45;;;7.35;;
11604;SDS011;5858;43.076;25.626;2023-03-23T10:48:25;9.23;;;6.68;;
11604;SDS011;5858;43.076;25.626;2023-03-23T10:50:58;9.27;;;6.97;;
11604;SDS011;5858;43.076;25.626;2023-03-23T10:53:31;8.32;;;7.13;;
11604;SDS011;5858;43.076;25.626;2023-03-23T10:55:59;10.10;;;7.47;;
11604;SDS011;5858;43.076;25.626;2023-03-23T10:58:28;13.90;;;7.45;;
11604;SDS011;5858;43.076;25.626;2023-03-23T11:00:57;10.68;;;7.57;;
11604;SDS011;5858;43.076;25.626;2023-03-23T11:03:33;10.05;;;7.65;;
11604;SDS011;5858;43.076;25.626;2023-03-23T11:06:07;10.60;;;7.47;;
11604;SDS011;5858;43.076;25.626;2023-03-23T11:08:38;8.05;;;7.10;;
11604;SDS011;5858;43.076;25.626;2023-03-23T11:11:15;9.00;;;6.95;;
11604;SDS011;5858;43.076;25.626;2023-03-23T11:13:46;7.68;;;6.93;;
11604;SDS011;5858;43.076;25.626;2023-03-23T11:16:22;8.75;;;7.68;;
11604;SDS011;5858;43.076;25.626;2023-03-23T11:18:50;7.95;;;6.85;;
11604;SDS011;5858;43.076;25.626;2023-03-23T11:21:19;12.60;;;6.13;;
11604;SDS011;5858;43.076;25.626;2023-03-23T11:23:50;10.00;;;7.10;;
11604;SDS011;5858;43.076;25.626;2023-03-23T11:26:20;8.27;;;6.93;;
11604;SDS011;5858;43.076;25.626;2023-03-23T11:28:52;7.77;;;6.87;;
11604;SDS011;5858;43.076;25.626;2023-03-23T11:31:23;8.97;;;6.67;;
11604;SDS011;5858;43.076;25.626;2023-03-23T11:33:55;10.13;;;7.93;;
11604;SDS011;5858;43.076;25.626;2023-03-23T11:36:29;9.93;;;7.70;;
11604;SDS011;5858;43.076;25.626;2023-03-23T11:39:02;10.57;;;8.47;;
11604;SDS011;5858;43.076;25.626;2023-03-23T11:41:33;10.33;;;8.27;;
11604;SDS011;5858;43.076;25.626;2023-03-23T11:44:08;12.07;;;9.30;;
11604;SDS011;5858;43.076;25.626;2023-03-23T11:46:39;9.40;;;7.40;;
11604;SDS011;5858;43.076;25.626;2023-03-23T11:49:18;7.82;;;6.95;;
11604;SDS011;5858;43.076;25.626;2023-03-23T11:51:54;8.85;;;7.47;;
11604;SDS011;5858;43.076;25.626;2023-03-23T11:54:28;9.93;;;7.13;;
11604;SDS011;5858;43.076;25.626;2023-03-23T11:56:58;12.20;;;8.02;;
11604;SDS011;5858;43.076;25.626;2023-03-23T11:59:29;7.95;;;7.13;;
11604;SDS011;5858;43.076;25.626;2023-03-23T12:02:08;9.15;;;7.97;;
11604;SDS011;5858;43.076;25.626;2023-03-23T12:05:07;12.68;;;9.27;;
11604;SDS011;5858;43.076;25.626;2023-03-23T12:08:07;16.20;;;7.87;;
11604;SDS011;5858;43.076;25.626;2023-03-23T12:10:56;13.20;;;9.07;;
11604;SDS011;5858;43.076;25.626;2023-03-23T12:13:35;10.45;;;8.57;;
11604;SDS011;5858;43.076;25.626;2023-03-23T12:16:21;10.40;;;7.18;;
11604;SDS011;5858;43.076;25.626;2023-03-23T12:18:58;9.73;;;8.30;;
11604;SDS011;5858;43.076;25.626;2023-03-23T12:21:33;11.90;;;8.77;;
11604;SDS011;5858;43.076;25.626;2023-03-23T12:24:11;11.37;;;8.30;;
11604;SDS011;5858;43.076;25.626;2023-03-23T12:26:52;11.83;;;8.13;;
11604;SDS011;5858;43.076;25.626;2023-03-23T12:29:37;11.23;;;7.82;;
11604;SDS011;5858;43.076;25.626;2023-03-23T12:32:34;10.02;;;8.10;;
11604;SDS011;5858;43.076;25.626;2023-03-23T12:35:13;10.60;;;8.68;;
11604;SDS011;5858;43.076;25.626;2023-03-23T12:37:56;9.45;;;7.60;;
11604;SDS011;5858;43.076;25.626;2023-03-23T12:40:35;10.82;;;8.02;;
11604;SDS011;5858;43.076;25.626;2023-03-23T12:43:15;9.43;;;7.65;;
11604;SDS011;5858;43.076;25.626;2023-03-23T12:45:53;11.52;;;7.63;;
11604;SDS011;5858;43.076;25.626;2023-03-23T12:48:29;9.13;;;7.40;;
11604;SDS011;5858;43.076;25.626;2023-03-23T12:51:02;11.77;;;8.40;;
11604;SDS011;5858;43.076;25.626;2023-03-23T12:53:36;9.63;;;8.63;;
11604;SDS011;5858;43.076;25.626;2023-03-23T12:56:16;13.20;;;7.50;;
11604;SDS011;5858;43.076;25.626;2023-03-23T12:58:50;14.57;;;8.30;;
11604;SDS011;5858;43.076;25.626;2023-03-23T13:01:22;10.40;;;8.35;;
11604;SDS011;5858;43.076;25.626;2023-03-23T13:03:55;11.30;;;8.32;;
11604;SDS011;5858;43.076;25.626;2023-03-23T13:06:26;11.13;;;7.88;;
11604;SDS011;5858;43.076;25.626;2023-03-23T13:08:58;11.15;;;8.18;;
11604;SDS011;5858;43.076;25.626;2023-03-23T13:11:30;10.27;;;7.70;;
11604;SDS011;5858;43.076;25.626;2023-03-23T13:14:02;10.95;;;8.05;;
11604;SDS011;5858;43.076;25.626;2023-03-23T13:16:44;14.93;;;8.98;;
11604;SDS011;5858;43.076;25.626;2023-03-23T13:19:19;8.73;;;7.70;;
11604;SDS011;5858;43.076;25.626;2023-03-23T13:21:56;10.55;;;7.70;;
11604;SDS011;5858;43.076;25.626;2023-03-23T13:24:29;9.68;;;8.13;;
11604;SDS011;5858;43.076;25.626;2023-03-23T13:27:00;11.80;;;6.80;;
11604;SDS011;5858;43.076;25.626;2023-03-23T13:29:32;13.80;;;7.50;;
11604;SDS011;5858;43.076;25.626;2023-03-23T13:32:06;8.48;;;7.13;;
11604;SDS011;5858;43.076;25.626;2023-03-23T13:34:39;9.00;;;7.05;;
11604;SDS011;5858;43.076;25.626;2023-03-23T13:37:09;10.00;;;6.80;;
11604;SDS011;5858;43.076;25.626;2023-03-23T13:39:50;13.45;;;8.63;;
11604;SDS011;5858;43.076;25.626;2023-03-23T13:42:22;11.63;;;7.23;;
11604;SDS011;5858;43.076;25.626;2023-03-23T13:45:04;8.30;;;7.07;;
11604;SDS011;5858;43.076;25.626;2023-03-23T13:47:37;10.13;;;7.45;;
11604;SDS011;5858;43.076;25.626;2023-03-23T13:50:10;11.27;;;8.57;;
11604;SDS011;5858;43.076;25.626;2023-03-23T13:52:47;7.80;;;6.70;;
11604;SDS011;5858;43.076;25.626;2023-03-23T13:55:21;9.43;;;7.70;;
11604;SDS011;5858;43.076;25.626;2023-03-23T13:57:57;11.03;;;8.40;;
11604;SDS011;5858;43.076;25.626;2023-03-23T14:00:44;8.40;;;7.53;;
11604;SDS011;5858;43.076;25.626;2023-03-23T14:03:14;8.60;;;7.13;;
11604;SDS011;5858;43.076;25.626;2023-03-23T14:05:45;16.27;;;8.00;;
11604;SDS011;5858;43.076;25.626;2023-03-23T14:08:22;16.98;;;7.38;;
11604;SDS011;5858;43.076;25.626;2023-03-23T14:10:52;11.00;;;7.80;;
11604;SDS011;5858;43.076;25.626;2023-03-23T14:13:29;11.17;;;8.17;;
11604;SDS011;5858;43.076;25.626;2023-03-23T14:16:01;9.95;;;7.30;;
11604;SDS011;5858;43.076;25.626;2023-03-23T14:18:31;10.13;;;7.40;;
11604;SDS011;5858;43.076;25.626;2023-03-23T14:21:02;9.40;;;7.63;;
11604;SDS011;5858;43.076;25.626;2023-03-23T14:23:30;9.13;;;7.05;;
11604;SDS011;5858;43.076;25.626;2023-03-23T14:25:59;12.55;;;8.07;;
11604;SDS011;5858;43.076;25.626;2023-03-23T14:28:37;11.20;;;8.00;;
11604;SDS011;5858;43.076;25.626;2023-03-23T14:31:12;10.53;;;8.03;;
11604;SDS011;5858;43.076;25.626;2023-03-23T14:33:44;10.03;;;7.57;;
11604;SDS011;5858;43.076;25.626;2023-03-23T14:36:14;9.43;;;7.73;;
11604;SDS011;5858;43.076;25.626;2023-03-23T14:38:41;10.80;;;8.15;;
11604;SDS011;5858;43.076;25.626;2023-03-23T14:41:10;9.50;;;6.90;;
11604;SDS011;5858;43.076;25.626;2023-03-23T14:43:39;8.25;;;6.68;;
11604;SDS011;5858;43.076;25.626;2023-03-23T14:46:11;9.70;;;7.18;;
11604;SDS011;5858;43.076;25.626;2023-03-23T14:48:40;9.98;;;8.10;;
11604;SDS011;5858;43.076;25.626;2023-03-23T14:51:14;13.48;;;8.00;;
11604;SDS011;5858;43.076;25.626;2023-03-23T14:53:45;11.52;;;6.72;;
11604;SDS011;5858;43.076;25.626;2023-03-23T14:56:13;8.40;;;7.35;;
11604;SDS011;5858;43.076;25.626;2023-03-23T14:58:43;10.77;;;7.53;;
11604;SDS011;5858;43.076;25.626;2023-03-23T15:01:13;8.02;;;6.72;;